Terminal Aerodrome Forecast
Issued by NWS Green Bay, WI

Home | Current Version | Previous Version | Text Only | Print | Product List | Glossary Off
Versions: 1 2 3 4 5 6 7 8 9 10 11 12 13 14 15 16 17 18 19 20 21 22 23 24 25 26 27 28 29 30 31

000
FTUS43 KGRB 220500
TAFGRB
TAF
KGRB 220520Z 2206/2306 28003KT P6SM SCT025 OVC080
      TEMPO 2206/2208 BKN025
     FM220800 30003KT P6SM OVC020
     FM221500 28005KT P6SM BKN025
     FM221800 25007KT P6SM SCT030
     FM222300 22008KT P6SM SCT030 SCT250
     FM230400 22009KT P6SM FEW030 SCT100 BKN250=

USA.gov is the U.S. government's official web portal to all federal, state and local government web resources and services.